sensor_id;sensor_type;location;lat;lon;timestamp;P1;P2;P0
73565;PMS5003;61846;52.970;-3.168;2023-04-25T00:00:38;16;12;
73565;PMS5003;61846;52.970;-3.168;2023-04-25T00:03:04;12;12;
73565;PMS5003;61846;52.970;-3.168;2023-04-25T00:05:29;24;15;
73565;PMS5003;61846;52.970;-3.168;2023-04-25T00:07:54;20;12;
73565;PMS5003;61846;52.970;-3.168;2023-04-25T00:10:20;17;10;
73565;PMS5003;61846;52.970;-3.168;2023-04-25T00:12:45;14;11;
73565;PMS5003;61846;52.970;-3.168;2023-04-25T00:15:11;14;12;
73565;PMS5003;61846;52.970;-3.168;2023-04-25T00:17:36;12;9;
73565;PMS5003;61846;52.970;-3.168;2023-04-25T00:20:02;9;9;
73565;PMS5003;61846;52.970;-3.168;2023-04-25T00:22:27;13;10;
73565;PMS5003;61846;52.970;-3.168;2023-04-25T00:24:52;11;8;
73565;PMS5003;61846;52.970;-3.168;2023-04-25T00:27:18;10;9;
73565;PMS5003;61846;52.970;-3.168;2023-04-25T00:29:44;11;9;
73565;PMS5003;61846;52.970;-3.168;2023-04-25T00:32:09;14;12;
73565;PMS5003;61846;52.970;-3.168;2023-04-25T00:34:34;8;8;
73565;PMS5003;61846;52.970;-3.168;2023-04-25T00:37:00;19;13;
73565;PMS5003;61846;52.970;-3.168;2023-04-25T00:39:25;15;12;
73565;PMS5003;61846;52.970;-3.168;2023-04-25T00:41:51;10;10;
73565;PMS5003;61846;52.970;-3.168;2023-04-25T00:44:16;10;10;
73565;PMS5003;61846;52.970;-3.168;2023-04-25T00:46:42;13;11;
73565;PMS5003;61846;52.970;-3.168;2023-04-25T00:49:07;12;12;
73565;PMS5003;61846;52.970;-3.168;2023-04-25T00:51:32;16;15;
73565;PMS5003;61846;52.970;-3.168;2023-04-25T00:53:58;16;13;
73565;PMS5003;61846;52.970;-3.168;2023-04-25T00:56:23;17;15;
73565;PMS5003;61846;52.970;-3.168;2023-04-25T00:58:49;20;15;
73565;PMS5003;61846;52.970;-3.168;2023-04-25T01:01:14;21;11;
73565;PMS5003;61846;52.970;-3.168;2023-04-25T01:03:39;17;16;
73565;PMS5003;61846;52.970;-3.168;2023-04-25T01:06:05;19;18;
73565;PMS5003;61846;52.970;-3.168;2023-04-25T01:08:31;15;12;
73565;PMS5003;61846;52.970;-3.168;2023-04-25T01:10:56;18;15;
73565;PMS5003;61846;52.970;-3.168;2023-04-25T01:13:22;14;11;
73565;PMS5003;61846;52.970;-3.168;2023-04-25T01:15:47;19;16;
73565;PMS5003;61846;52.970;-3.168;2023-04-25T01:18:12;13;13;
73565;PMS5003;61846;52.970;-3.168;2023-04-25T01:20:38;15;11;
73565;PMS5003;61846;52.970;-3.168;2023-04-25T01:23:03;22;17;
73565;PMS5003;61846;52.970;-3.168;2023-04-25T01:25:29;13;13;
73565;PMS5003;61846;52.970;-3.168;2023-04-25T01:27:54;20;11;
73565;PMS5003;61846;52.970;-3.168;2023-04-25T01:30:19;12;9;
73565;PMS5003;61846;52.970;-3.168;2023-04-25T01:32:45;12;8;
73565;PMS5003;61846;52.970;-3.168;2023-04-25T01:35:11;13;9;
73565;PMS5003;61846;52.970;-3.168;2023-04-25T01:37:36;15;12;
73565;PMS5003;61846;52.970;-3.168;2023-04-25T01:40:01;13;8;
73565;PMS5003;61846;52.970;-3.168;2023-04-25T01:42:27;9;6;
73565;PMS5003;61846;52.970;-3.168;2023-04-25T01:44:52;16;11;
73565;PMS5003;61846;52.970;-3.168;2023-04-25T01:47:17;14;11;
73565;PMS5003;61846;52.970;-3.168;2023-04-25T01:49:43;22;14;
73565;PMS5003;61846;52.970;-3.168;2023-04-25T01:52:08;19;14;
73565;PMS5003;61846;52.970;-3.168;2023-04-25T01:54:33;16;14;
73565;PMS5003;61846;52.970;-3.168;2023-04-25T01:56:59;22;12;
73565;PMS5003;61846;52.970;-3.168;2023-04-25T01:59:24;20;11;
73565;PMS5003;61846;52.970;-3.168;2023-04-25T02:01:50;22;14;
73565;PMS5003;61846;52.970;-3.168;2023-04-25T02:04:15;11;10;
73565;PMS5003;61846;52.970;-3.168;2023-04-25T02:06:41;14;12;
73565;PMS5003;61846;52.970;-3.168;2023-04-25T02:09:06;19;16;
73565;PMS5003;61846;52.970;-3.168;2023-04-25T02:11:32;13;13;
73565;PMS5003;61846;52.970;-3.168;2023-04-25T02:13:58;17;12;
73565;PMS5003;61846;52.970;-3.168;2023-04-25T02:16:24;10;10;
73565;PMS5003;61846;52.970;-3.168;2023-04-25T02:18:49;13;10;
73565;PMS5003;61846;52.970;-3.168;2023-04-25T02:21:15;20;13;
73565;PMS5003;61846;52.970;-3.168;2023-04-25T02:23:40;13;13;
73565;PMS5003;61846;52.970;-3.168;2023-04-25T02:26:06;12;12;
73565;PMS5003;61846;52.970;-3.168;2023-04-25T02:28:32;18;10;
73565;PMS5003;61846;52.970;-3.168;2023-04-25T02:30:57;12;11;
73565;PMS5003;61846;52.970;-3.168;2023-04-25T02:33:22;14;11;
73565;PMS5003;61846;52.970;-3.168;2023-04-25T02:35:48;12;10;
73565;PMS5003;61846;52.970;-3.168;2023-04-25T02:38:13;12;10;
73565;PMS5003;61846;52.970;-3.168;2023-04-25T02:40:39;13;11;
73565;PMS5003;61846;52.970;-3.168;2023-04-25T02:43:05;15;12;
73565;PMS5003;61846;52.970;-3.168;2023-04-25T02:45:31;10;10;
73565;PMS5003;61846;52.970;-3.168;2023-04-25T02:47:57;11;10;
73565;PMS5003;61846;52.970;-3.168;2023-04-25T02:50:22;16;12;
73565;PMS5003;61846;52.970;-3.168;2023-04-25T02:52:48;14;12;
73565;PMS5003;61846;52.970;-3.168;2023-04-25T02:55:13;12;12;
73565;PMS5003;61846;52.970;-3.168;2023-04-25T02:57:39;10;9;
73565;PMS5003;61846;52.970;-3.168;2023-04-25T03:00:05;18;11;
73565;PMS5003;61846;52.970;-3.168;2023-04-25T03:02:30;12;8;
73565;PMS5003;61846;52.970;-3.168;2023-04-25T03:04:55;15;12;
73565;PMS5003;61846;52.970;-3.168;2023-04-25T03:07:21;12;9;
73565;PMS5003;61846;52.970;-3.168;2023-04-25T03:09:46;11;9;
73565;PMS5003;61846;52.970;-3.168;2023-04-25T03:12:12;10;10;
73565;PMS5003;61846;52.970;-3.168;2023-04-25T03:14:37;14;12;
73565;PMS5003;61846;52.970;-3.168;2023-04-25T03:17:03;11;10;
73565;PMS5003;61846;52.970;-3.168;2023-04-25T03:19:28;14;11;
73565;PMS5003;61846;52.970;-3.168;2023-04-25T03:21:54;12;12;
73565;PMS5003;61846;52.970;-3.168;2023-04-25T03:24:19;14;12;
73565;PMS5003;61846;52.970;-3.168;2023-04-25T03:26:45;22;12;
73565;PMS5003;61846;52.970;-3.168;2023-04-25T03:29:10;19;17;
73565;PMS5003;61846;52.970;-3.168;2023-04-25T03:31:36;17;12;
73565;PMS5003;61846;52.970;-3.168;2023-04-25T03:34:01;19;14;
73565;PMS5003;61846;52.970;-3.168;2023-04-25T03:36:26;17;16;
73565;PMS5003;61846;52.970;-3.168;2023-04-25T03:38:52;21;15;
73565;PMS5003;61846;52.970;-3.168;2023-04-25T03:41:17;15;13;
73565;PMS5003;61846;52.970;-3.168;2023-04-25T03:43:43;14;11;
73565;PMS5003;61846;52.970;-3.168;2023-04-25T03:46:08;18;12;
73565;PMS5003;61846;52.970;-3.168;2023-04-25T03:48:34;17;11;
73565;PMS5003;61846;52.970;-3.168;2023-04-25T03:51:00;12;10;
73565;PMS5003;61846;52.970;-3.168;2023-04-25T03:53:26;14;13;
73565;PMS5003;61846;52.970;-3.168;2023-04-25T03:55:51;14;12;
73565;PMS5003;61846;52.970;-3.168;2023-04-25T03:58:17;11;11;
73565;PMS5003;61846;52.970;-3.168;2023-04-25T04:00:43;17;15;
73565;PMS5003;61846;52.970;-3.168;2023-04-25T04:03:08;18;12;
73565;PMS5003;61846;52.970;-3.168;2023-04-25T04:05:34;15;13;
73565;PMS5003;61846;52.970;-3.168;2023-04-25T04:07:59;15;12;
73565;PMS5003;61846;52.970;-3.168;2023-04-25T04:10:25;12;9;
73565;PMS5003;61846;52.970;-3.168;2023-04-25T04:12:50;13;11;
73565;PMS5003;61846;52.970;-3.168;2023-04-25T04:15:15;11;11;
73565;PMS5003;61846;52.970;-3.168;2023-04-25T04:17:41;14;10;
73565;PMS5003;61846;52.970;-3.168;2023-04-25T04:20:07;10;10;
73565;PMS5003;61846;52.970;-3.168;2023-04-25T04:22:33;16;12;
73565;PMS5003;61846;52.970;-3.168;2023-04-25T04:24:58;8;8;
73565;PMS5003;61846;52.970;-3.168;2023-04-25T04:27:24;15;10;
73565;PMS5003;61846;52.970;-3.168;2023-04-25T04:29:49;15;10;
73565;PMS5003;61846;52.970;-3.168;2023-04-25T04:32:15;11;10;
73565;PMS5003;61846;52.970;-3.168;2023-04-25T04:34:40;13;8;
73565;PMS5003;61846;52.970;-3.168;2023-04-25T04:37:06;18;12;
73565;PMS5003;61846;52.970;-3.168;2023-04-25T04:39:31;12;10;
73565;PMS5003;61846;52.970;-3.168;2023-04-25T04:41:57;11;9;
73565;PMS5003;61846;52.970;-3.168;2023-04-25T04:44:22;12;9;
73565;PMS5003;61846;52.970;-3.168;2023-04-25T04:46:48;15;8;
73565;PMS5003;61846;52.970;-3.168;2023-04-25T04:49:14;9;9;
73565;PMS5003;61846;52.970;-3.168;2023-04-25T04:51:39;12;10;
73565;PMS5003;61846;52.970;-3.168;2023-04-25T04:54:05;11;9;
73565;PMS5003;61846;52.970;-3.168;2023-04-25T04:56:31;11;9;
73565;PMS5003;61846;52.970;-3.168;2023-04-25T04:58:56;13;12;
73565;PMS5003;61846;52.970;-3.168;2023-04-25T05:01:22;19;11;
73565;PMS5003;61846;52.970;-3.168;2023-04-25T05:03:48;16;12;
73565;PMS5003;61846;52.970;-3.168;2023-04-25T05:06:13;14;9;
73565;PMS5003;61846;52.970;-3.168;2023-04-25T05:08:38;7;6;
73565;PMS5003;61846;52.970;-3.168;2023-04-25T05:11:04;8;8;
73565;PMS5003;61846;52.970;-3.168;2023-04-25T05:13:29;9;8;
73565;PMS5003;61846;52.970;-3.168;2023-04-25T05:15:55;11;8;
73565;PMS5003;61846;52.970;-3.168;2023-04-25T05:18:21;13;11;
73565;PMS5003;61846;52.970;-3.168;2023-04-25T05:20:46;9;9;
73565;PMS5003;61846;52.970;-3.168;2023-04-25T05:23:12;13;10;
73565;PMS5003;61846;52.970;-3.168;2023-04-25T05:25:38;15;11;
73565;PMS5003;61846;52.970;-3.168;2023-04-25T05:28:03;12;9;
73565;PMS5003;61846;52.970;-3.168;2023-04-25T05:30:28;10;10;
73565;PMS5003;61846;52.970;-3.168;2023-04-25T05:32:54;9;7;
73565;PMS5003;61846;52.970;-3.168;2023-04-25T05:35:19;12;10;
73565;PMS5003;61846;52.970;-3.168;2023-04-25T05:37:45;13;8;
73565;PMS5003;61846;52.970;-3.168;2023-04-25T05:40:11;11;9;
73565;PMS5003;61846;52.970;-3.168;2023-04-25T05:42:36;9;9;
73565;PMS5003;61846;52.970;-3.168;2023-04-25T05:45:02;9;7;
73565;PMS5003;61846;52.970;-3.168;2023-04-25T05:47:27;11;11;
73565;PMS5003;61846;52.970;-3.168;2023-04-25T05:49:53;11;11;
73565;PMS5003;61846;52.970;-3.168;2023-04-25T05:52:18;9;9;
73565;PMS5003;61846;52.970;-3.168;2023-04-25T05:54:43;13;11;
73565;PMS5003;61846;52.970;-3.168;2023-04-25T05:57:08;9;9;
73565;PMS5003;61846;52.970;-3.168;2023-04-25T05:59:34;9;8;
73565;PMS5003;61846;52.970;-3.168;2023-04-25T06:01:59;10;9;
73565;PMS5003;61846;52.970;-3.168;2023-04-25T06:04:25;10;7;
73565;PMS5003;61846;52.970;-3.168;2023-04-25T06:06:51;9;7;
73565;PMS5003;61846;52.970;-3.168;2023-04-25T06:09:17;9;8;
73565;PMS5003;61846;52.970;-3.168;2023-04-25T06:11:42;9;7;
73565;PMS5003;61846;52.970;-3.168;2023-04-25T06:14:08;17;9;
73565;PMS5003;61846;52.970;-3.168;2023-04-25T06:16:33;12;10;
73565;PMS5003;61846;52.970;-3.168;2023-04-25T06:18:59;6;6;
73565;PMS5003;61846;52.970;-3.168;2023-04-25T06:21:24;8;7;
73565;PMS5003;61846;52.970;-3.168;2023-04-25T06:23:50;16;12;
73565;PMS5003;61846;52.970;-3.168;2023-04-25T06:26:15;11;9;
73565;PMS5003;61846;52.970;-3.168;2023-04-25T06:28:40;10;8;
73565;PMS5003;61846;52.970;-3.168;2023-04-25T06:31:06;12;10;
73565;PMS5003;61846;52.970;-3.168;2023-04-25T06:33:32;9;9;
73565;PMS5003;61846;52.970;-3.168;2023-04-25T06:35:58;7;6;
73565;PMS5003;61846;52.970;-3.168;2023-04-25T06:38:23;5;4;
73565;PMS5003;61846;52.970;-3.168;2023-04-25T06:40:49;10;9;
73565;PMS5003;61846;52.970;-3.168;2023-04-25T06:43:15;9;9;
73565;PMS5003;61846;52.970;-3.168;2023-04-25T06:45:40;14;10;
73565;PMS5003;61846;52.970;-3.168;2023-04-25T06:48:06;8;6;
73565;PMS5003;61846;52.970;-3.168;2023-04-25T06:50:33;7;7;
73565;PMS5003;61846;52.970;-3.168;2023-04-25T06:52:57;8;7;
73565;PMS5003;61846;52.970;-3.168;2023-04-25T06:55:23;8;8;
73565;PMS5003;61846;52.970;-3.168;2023-04-25T06:57:48;18;8;
73565;PMS5003;61846;52.970;-3.168;2023-04-25T07:00:14;13;10;
73565;PMS5003;61846;52.970;-3.168;2023-04-25T07:02:39;8;6;
73565;PMS5003;61846;52.970;-3.168;2023-04-25T07:05:05;10;8;
73565;PMS5003;61846;52.970;-3.168;2023-04-25T07:07:31;12;7;
73565;PMS5003;61846;52.970;-3.168;2023-04-25T07:09:56;10;8;
73565;PMS5003;61846;52.970;-3.168;2023-04-25T07:12:22;8;8;
73565;PMS5003;61846;52.970;-3.168;2023-04-25T07:14:48;11;7;
73565;PMS5003;61846;52.970;-3.168;2023-04-25T07:17:14;9;7;
73565;PMS5003;61846;52.970;-3.168;2023-04-25T07:19:39;14;7;
73565;PMS5003;61846;52.970;-3.168;2023-04-25T07:22:05;11;9;
73565;PMS5003;61846;52.970;-3.168;2023-04-25T07:24:30;25;16;
73565;PMS5003;61846;52.970;-3.168;2023-04-25T07:26:56;19;12;
73565;PMS5003;61846;52.970;-3.168;2023-04-25T07:29:21;17;9;
73565;PMS5003;61846;52.970;-3.168;2023-04-25T07:31:47;20;10;
73565;PMS5003;61846;52.970;-3.168;2023-04-25T07:34:13;10;9;
73565;PMS5003;61846;52.970;-3.168;2023-04-25T07:36:38;13;10;
73565;PMS5003;61846;52.970;-3.168;2023-04-25T07:39:04;11;10;
73565;PMS5003;61846;52.970;-3.168;2023-04-25T07:41:29;8;8;
73565;PMS5003;61846;52.970;-3.168;2023-04-25T07:43:55;14;12;
73565;PMS5003;61846;52.970;-3.168;2023-04-25T07:46:20;13;12;
73565;PMS5003;61846;52.970;-3.168;2023-04-25T07:48:45;15;9;
73565;PMS5003;61846;52.970;-3.168;2023-04-25T07:51:11;11;7;
73565;PMS5003;61846;52.970;-3.168;2023-04-25T07:53:37;13;11;
73565;PMS5003;61846;52.970;-3.168;2023-04-25T07:56:02;9;6;
73565;PMS5003;61846;52.970;-3.168;2023-04-25T07:58:28;9;7;
73565;PMS5003;61846;52.970;-3.168;2023-04-25T08:00:54;11;6;
73565;PMS5003;61846;52.970;-3.168;2023-04-25T08:03:19;5;5;
73565;PMS5003;61846;52.970;-3.168;2023-04-25T08:05:45;5;5;
73565;PMS5003;61846;52.970;-3.168;2023-04-25T08:08:11;6;3;
73565;PMS5003;61846;52.970;-3.168;2023-04-25T08:10:36;6;5;
73565;PMS5003;61846;52.970;-3.168;2023-04-25T08:13:01;6;5;
73565;PMS5003;61846;52.970;-3.168;2023-04-25T08:15:27;9;7;
73565;PMS5003;61846;52.970;-3.168;2023-04-25T08:36:03;3;3;
73565;PMS5003;61846;52.970;-3.168;2023-04-25T08:38:28;5;3;
73565;PMS5003;61846;52.970;-3.168;2023-04-25T08:40:53;7;5;
73565;PMS5003;61846;52.970;-3.168;2023-04-25T08:43:19;7;4;
73565;PMS5003;61846;52.970;-3.168;2023-04-25T08:45:45;3;3;
73565;PMS5003;61846;52.970;-3.168;2023-04-25T08:48:11;5;4;
73565;PMS5003;61846;52.970;-3.168;2023-04-25T08:50:36;7;6;
73565;PMS5003;61846;52.970;-3.168;2023-04-25T08:53:01;3;3;
73565;PMS5003;61846;52.970;-3.168;2023-04-25T08:55:27;6;4;
73565;PMS5003;61846;52.970;-3.168;2023-04-25T08:57:52;5;5;
73565;PMS5003;61846;52.970;-3.168;2023-04-25T09:00:18;6;4;
73565;PMS5003;61846;52.970;-3.168;2023-04-25T09:02:43;5;4;
73565;PMS5003;61846;52.970;-3.168;2023-04-25T09:05:09;4;4;
73565;PMS5003;61846;52.970;-3.168;2023-04-25T09:07:34;13;4;
73565;PMS5003;61846;52.970;-3.168;2023-04-25T09:10:00;6;5;
73565;PMS5003;61846;52.970;-3.168;2023-04-25T09:12:25;4;4;
73565;PMS5003;61846;52.970;-3.168;2023-04-25T09:17:16;11;6;
73565;PMS5003;61846;52.970;-3.168;2023-04-25T09:19:41;3;3;
73565;PMS5003;61846;52.970;-3.168;2023-04-25T09:22:07;8;6;
73565;PMS5003;61846;52.970;-3.168;2023-04-25T09:24:33;5;4;
73565;PMS5003;61846;52.970;-3.168;2023-04-25T09:26:57;7;5;
73565;PMS5003;61846;52.970;-3.168;2023-04-25T09:31:49;10;6;
73565;PMS5003;61846;52.970;-3.168;2023-04-25T09:34:14;7;6;
73565;PMS5003;61846;52.970;-3.168;2023-04-25T09:36:39;11;7;
73565;PMS5003;61846;52.970;-3.168;2023-04-25T09:39:05;6;6;
73565;PMS5003;61846;52.970;-3.168;2023-04-25T09:41:31;6;6;
73565;PMS5003;61846;52.970;-3.168;2023-04-25T09:43:56;9;6;
73565;PMS5003;61846;52.970;-3.168;2023-04-25T09:46:21;7;6;
73565;PMS5003;61846;52.970;-3.168;2023-04-25T09:48:48;8;5;
73565;PMS5003;61846;52.970;-3.168;2023-04-25T09:51:13;8;7;
73565;PMS5003;61846;52.970;-3.168;2023-04-25T09:53:38;7;5;
73565;PMS5003;61846;52.970;-3.168;2023-04-25T09:56:04;9;7;
73565;PMS5003;61846;52.970;-3.168;2023-04-25T09:58:29;5;4;
73565;PMS5003;61846;52.970;-3.168;2023-04-25T10:00:54;6;5;
73565;PMS5003;61846;52.970;-3.168;2023-04-25T10:03:19;9;7;
73565;PMS5003;61846;52.970;-3.168;2023-04-25T10:05:45;8;7;
73565;PMS5003;61846;52.970;-3.168;2023-04-25T10:08:10;15;7;
73565;PMS5003;61846;52.970;-3.168;2023-04-25T10:10:36;5;3;
73565;PMS5003;61846;52.970;-3.168;2023-04-25T10:13:03;9;7;
73565;PMS5003;61846;52.970;-3.168;2023-04-25T10:15:27;6;6;
73565;PMS5003;61846;52.970;-3.168;2023-04-25T10:17:52;10;6;
73565;PMS5003;61846;52.970;-3.168;2023-04-25T10:20:18;7;7;
73565;PMS5003;61846;52.970;-3.168;2023-04-25T10:22:44;9;8;
73565;PMS5003;61846;52.970;-3.168;2023-04-25T10:25:08;8;7;
73565;PMS5003;61846;52.970;-3.168;2023-04-25T10:27:34;8;8;
73565;PMS5003;61846;52.970;-3.168;2023-04-25T10:30:00;7;7;
73565;PMS5003;61846;52.970;-3.168;2023-04-25T10:32:24;9;9;
73565;PMS5003;61846;52.970;-3.168;2023-04-25T10:34:50;9;7;
73565;PMS5003;61846;52.970;-3.168;2023-04-25T10:37:15;8;8;
73565;PMS5003;61846;52.970;-3.168;2023-04-25T10:39:41;15;7;
73565;PMS5003;61846;52.970;-3.168;2023-04-25T10:42:06;12;10;
73565;PMS5003;61846;52.970;-3.168;2023-04-25T10:44:31;11;7;
73565;PMS5003;61846;52.970;-3.168;2023-04-25T10:46:57;7;7;
73565;PMS5003;61846;52.970;-3.168;2023-04-25T10:51:48;6;6;
73565;PMS5003;61846;52.970;-3.168;2023-04-25T10:54:13;8;6;
73565;PMS5003;61846;52.970;-3.168;2023-04-25T10:56:40;6;6;
73565;PMS5003;61846;52.970;-3.168;2023-04-25T10:59:05;8;7;
73565;PMS5003;61846;52.970;-3.168;2023-04-25T11:01:35;9;7;
73565;PMS5003;61846;52.970;-3.168;2023-04-25T11:03:57;8;8;
73565;PMS5003;61846;52.970;-3.168;2023-04-25T11:06:22;9;7;
73565;PMS5003;61846;52.970;-3.168;2023-04-25T11:08:47;8;7;
73565;PMS5003;61846;52.970;-3.168;2023-04-25T11:11:11;7;7;
73565;PMS5003;61846;52.970;-3.168;2023-04-25T11:13:36;5;5;
73565;PMS5003;61846;52.970;-3.168;2023-04-25T11:16:02;7;6;
73565;PMS5003;61846;52.970;-3.168;2023-04-25T11:18:27;7;6;
73565;PMS5003;61846;52.970;-3.168;2023-04-25T11:20:53;11;8;
73565;PMS5003;61846;52.970;-3.168;2023-04-25T11:23:18;5;5;
73565;PMS5003;61846;52.970;-3.168;2023-04-25T11:25:44;6;6;
73565;PMS5003;61846;52.970;-3.168;2023-04-25T11:28:09;8;8;
73565;PMS5003;61846;52.970;-3.168;2023-04-25T11:30:34;7;7;
73565;PMS5003;61846;52.970;-3.168;2023-04-25T11:32:59;22;11;
73565;PMS5003;61846;52.970;-3.168;2023-04-25T11:35:25;9;7;
73565;PMS5003;61846;52.970;-3.168;2023-04-25T11:37:50;7;7;
73565;PMS5003;61846;52.970;-3.168;2023-04-25T11:40:16;8;8;
73565;PMS5003;61846;52.970;-3.168;2023-04-25T11:42:43;9;9;
73565;PMS5003;61846;52.970;-3.168;2023-04-25T11:45:07;17;12;
73565;PMS5003;61846;52.970;-3.168;2023-04-25T11:47:33;10;8;
73565;PMS5003;61846;52.970;-3.168;2023-04-25T11:49:58;8;7;
73565;PMS5003;61846;52.970;-3.168;2023-04-25T11:52:23;10;10;
73565;PMS5003;61846;52.970;-3.168;2023-04-25T11:54:49;9;9;
73565;PMS5003;61846;52.970;-3.168;2023-04-25T11:57:14;14;12;
73565;PMS5003;61846;52.970;-3.168;2023-04-25T11:59:39;10;9;
73565;PMS5003;61846;52.970;-3.168;2023-04-25T12:02:05;9;9;
73565;PMS5003;61846;52.970;-3.168;2023-04-25T12:04:30;11;11;
73565;PMS5003;61846;52.970;-3.168;2023-04-25T12:06:56;20;16;
73565;PMS5003;61846;52.970;-3.168;2023-04-25T12:09:28;10;10;
73565;PMS5003;61846;52.970;-3.168;2023-04-25T12:11:47;12;10;
73565;PMS5003;61846;52.970;-3.168;2023-04-25T12:14:12;10;9;
73565;PMS5003;61846;52.970;-3.168;2023-04-25T12:16:41;10;10;
73565;PMS5003;61846;52.970;-3.168;2023-04-25T12:19:03;19;13;
73565;PMS5003;61846;52.970;-3.168;2023-04-25T12:21:28;11;11;
73565;PMS5003;61846;52.970;-3.168;2023-04-25T12:23:54;13;10;
73565;PMS5003;61846;52.970;-3.168;2023-04-25T12:26:19;13;9;
73565;PMS5003;61846;52.970;-3.168;2023-04-25T12:28:45;12;9;
73565;PMS5003;61846;52.970;-3.168;2023-04-25T12:31:10;8;8;
73565;PMS5003;61846;52.970;-3.168;2023-04-25T12:33:36;10;10;
73565;PMS5003;61846;52.970;-3.168;2023-04-25T12:36:02;16;12;
73565;PMS5003;61846;52.970;-3.168;2023-04-25T12:38:27;19;11;
73565;PMS5003;61846;52.970;-3.168;2023-04-25T12:40:52;12;12;
73565;PMS5003;61846;52.970;-3.168;2023-04-25T12:43:18;13;13;
73565;PMS5003;61846;52.970;-3.168;2023-04-25T12:45:43;10;10;
73565;PMS5003;61846;52.970;-3.168;2023-04-25T12:48:08;17;12;
73565;PMS5003;61846;52.970;-3.168;2023-04-25T12:50:34;11;9;
73565;PMS5003;61846;52.970;-3.168;2023-04-25T12:52:59;9;9;
73565;PMS5003;61846;52.970;-3.168;2023-04-25T12:55:25;15;14;
73565;PMS5003;61846;52.970;-3.168;2023-04-25T12:57:50;13;10;
73565;PMS5003;61846;52.970;-3.168;2023-04-25T13:00:16;10;10;
73565;PMS5003;61846;52.970;-3.168;2023-04-25T13:02:41;15;13;
73565;PMS5003;61846;52.970;-3.168;2023-04-25T13:05:07;13;9;
73565;PMS5003;61846;52.970;-3.168;2023-04-25T13:07:32;17;12;
73565;PMS5003;61846;52.970;-3.168;2023-04-25T13:09:58;11;10;
73565;PMS5003;61846;52.970;-3.168;2023-04-25T13:12:23;10;10;
73565;PMS5003;61846;52.970;-3.168;2023-04-25T13:14:48;10;10;
73565;PMS5003;61846;52.970;-3.168;2023-04-25T13:17:13;9;9;
73565;PMS5003;61846;52.970;-3.168;2023-04-25T13:19:39;10;10;
73565;PMS5003;61846;52.970;-3.168;2023-04-25T13:22:04;13;12;
73565;PMS5003;61846;52.970;-3.168;2023-04-25T13:24:29;14;11;
73565;PMS5003;61846;52.970;-3.168;2023-04-25T13:26:55;16;11;
73565;PMS5003;61846;52.970;-3.168;2023-04-25T13:29:20;11;9;
73565;PMS5003;61846;52.970;-3.168;2023-04-25T13:31:45;12;11;
73565;PMS5003;61846;52.970;-3.168;2023-04-25T13:34:11;12;12;
73565;PMS5003;61846;52.970;-3.168;2023-04-25T13:36:36;11;11;
73565;PMS5003;61846;52.970;-3.168;2023-04-25T13:39:01;15;14;
73565;PMS5003;61846;52.970;-3.168;2023-04-25T13:41:27;12;10;
73565;PMS5003;61846;52.970;-3.168;2023-04-25T13:43:52;12;12;
73565;PMS5003;61846;52.970;-3.168;2023-04-25T13:46:17;13;12;
73565;PMS5003;61846;52.970;-3.168;2023-04-25T13:48:43;14;11;
73565;PMS5003;61846;52.970;-3.168;2023-04-25T13:51:08;17;13;
73565;PMS5003;61846;52.970;-3.168;2023-04-25T13:53:34;13;12;
73565;PMS5003;61846;52.970;-3.168;2023-04-25T13:55:59;12;10;
73565;PMS5003;61846;52.970;-3.168;2023-04-25T13:58:24;11;9;
73565;PMS5003;61846;52.970;-3.168;2023-04-25T14:00:49;11;9;
73565;PMS5003;61846;52.970;-3.168;2023-04-25T14:03:15;14;12;
73565;PMS5003;61846;52.970;-3.168;2023-04-25T14:05:41;19;14;
73565;PMS5003;61846;52.970;-3.168;2023-04-25T14:08:07;18;16;
73565;PMS5003;61846;52.970;-3.168;2023-04-25T14:10:31;13;11;
73565;PMS5003;61846;52.970;-3.168;2023-04-25T14:12:56;13;12;
73565;PMS5003;61846;52.970;-3.168;2023-04-25T14:15:22;14;14;
73565;PMS5003;61846;52.970;-3.168;2023-04-25T14:17:47;14;14;
73565;PMS5003;61846;52.970;-3.168;2023-04-25T14:20:12;15;10;
73565;PMS5003;61846;52.970;-3.168;2023-04-25T14:22:38;12;12;
73565;PMS5003;61846;52.970;-3.168;2023-04-25T14:25:03;17;14;
73565;PMS5003;61846;52.970;-3.168;2023-04-25T14:27:28;18;17;
73565;PMS5003;61846;52.970;-3.168;2023-04-25T14:29:54;18;13;
73565;PMS5003;61846;52.970;-3.168;2023-04-25T14:32:19;15;15;
73565;PMS5003;61846;52.970;-3.168;2023-04-25T14:34:45;15;15;
73565;PMS5003;61846;52.970;-3.168;2023-04-25T14:37:10;15;13;
73565;PMS5003;61846;52.970;-3.168;2023-04-25T14:39:36;15;14;
73565;PMS5003;61846;52.970;-3.168;2023-04-25T14:42:01;17;14;
73565;PMS5003;61846;52.970;-3.168;2023-04-25T14:44:27;24;18;
73565;PMS5003;61846;52.970;-3.168;2023-04-25T14:46:53;14;14;
73565;PMS5003;61846;52.970;-3.168;2023-04-25T14:49:18;15;14;
73565;PMS5003;61846;52.970;-3.168;2023-04-25T14:51:44;17;17;
73565;PMS5003;61846;52.970;-3.168;2023-04-25T14:54:09;22;15;
73565;PMS5003;61846;52.970;-3.168;2023-04-25T14:56:34;17;15;
73565;PMS5003;61846;52.970;-3.168;2023-04-25T14:58:59;15;15;
73565;PMS5003;61846;52.970;-3.168;2023-04-25T15:01:25;19;18;
73565;PMS5003;61846;52.970;-3.168;2023-04-25T15:03:50;18;16;
73565;PMS5003;61846;52.970;-3.168;2023-04-25T15:06:16;20;19;
73565;PMS5003;61846;52.970;-3.168;2023-04-25T15:08:42;25;17;
73565;PMS5003;61846;52.970;-3.168;2023-04-25T15:11:07;16;15;
73565;PMS5003;61846;52.970;-3.168;2023-04-25T15:13:32;15;15;
73565;PMS5003;61846;52.970;-3.168;2023-04-25T15:15:58;17;17;
73565;PMS5003;61846;52.970;-3.168;2023-04-25T15:18:23;17;17;
73565;PMS5003;61846;52.970;-3.168;2023-04-25T15:20:49;21;19;
73565;PMS5003;61846;52.970;-3.168;2023-04-25T15:23:14;17;15;
73565;PMS5003;61846;52.970;-3.168;2023-04-25T15:25:39;24;18;
73565;PMS5003;61846;52.970;-3.168;2023-04-25T15:28:05;19;17;
73565;PMS5003;61846;52.970;-3.168;2023-04-25T15:30:31;19;17;
73565;PMS5003;61846;52.970;-3.168;2023-04-25T15:32:56;25;18;
73565;PMS5003;61846;52.970;-3.168;2023-04-25T15:35:22;16;16;
73565;PMS5003;61846;52.970;-3.168;2023-04-25T15:37:47;23;21;
73565;PMS5003;61846;52.970;-3.168;2023-04-25T15:40:13;17;17;
73565;PMS5003;61846;52.970;-3.168;2023-04-25T15:42:39;24;17;
73565;PMS5003;61846;52.970;-3.168;2023-04-25T15:45:05;19;19;
73565;PMS5003;61846;52.970;-3.168;2023-04-25T15:47:29;18;16;
73565;PMS5003;61846;52.970;-3.168;2023-04-25T15:49:55;18;16;
73565;PMS5003;61846;52.970;-3.168;2023-04-25T15:52:20;18;18;
73565;PMS5003;61846;52.970;-3.168;2023-04-25T15:54:46;17;17;
73565;PMS5003;61846;52.970;-3.168;2023-04-25T15:57:11;20;17;
73565;PMS5003;61846;52.970;-3.168;2023-04-25T15:59:37;17;17;
73565;PMS5003;61846;52.970;-3.168;2023-04-25T16:02:03;22;20;
73565;PMS5003;61846;52.970;-3.168;2023-04-25T16:04:28;21;20;
73565;PMS5003;61846;52.970;-3.168;2023-04-25T16:06:53;23;19;
73565;PMS5003;61846;52.970;-3.168;2023-04-25T16:09:19;22;19;
73565;PMS5003;61846;52.970;-3.168;2023-04-25T16:11:45;24;16;
73565;PMS5003;61846;52.970;-3.168;2023-04-25T16:14:10;26;19;
73565;PMS5003;61846;52.970;-3.168;2023-04-25T16:16:39;16;16;
73565;PMS5003;61846;52.970;-3.168;2023-04-25T16:19:02;20;18;
73565;PMS5003;61846;52.970;-3.168;2023-04-25T16:21:27;18;18;
73565;PMS5003;61846;52.970;-3.168;2023-04-25T16:23:52;16;16;
73565;PMS5003;61846;52.970;-3.168;2023-04-25T16:26:17;17;17;